Weather observations for the past three days for
Dodge Center Airport
Metric (Imperial)
Date Time (cdt) Wind (kph) Vis. (km) Weather Sky Cond. Temperature (ºC) Relative Humidity Wind Chill (°C) Heat Index (°C) Pressure Precipitation (cm)
Air Dwpt 6 hour altimeter (cm) sea level (mb) 1 hr 3 hr 6 hr
Max. Min.
02 15:35 W 22 16.09 A Few Clouds FEW095 16.7 -0.3 32% 76.1 0.0
02 15:15 W 15 G 28 14.48 Fair CLR 16.6 -0.8 31% 76.12 0.0
02 14:55 W 20 G 28 16.09 Fair CLR 16.1 -1.1 31% 76.15 0.0
02 14:35 W 15 16.09 Fair CLR 15.7 -2.1 30% 76.17 0.0
02 14:15 W 9 16.09 A Few Clouds FEW090 15.9 -2.2 29% 76.2 0.0
02 13:55 W 11 16.09 Fair CLR 14.9 -2.5 30% 76.23 0.0
02 13:35 W 26 16.09 A Few Clouds FEW340 15 -2.2 31% 76.25 0.0
02 12:55 W 22 G 33 16.09 A Few Clouds FEW350 14.1 -2.9 14.2 1.8 31% 76.28 0.0
02 12:35 W 28 G 33 16.09 A Few Clouds FEW340 13.9 -2.7 32% 76.3 0.0
02 12:15 SW 11 G 31 16.09 Fair CLR 13.1 -2 35% 76.33 0.0
02 11:55 W 20 G 33 16.09 Fair CLR 13.3 -2.2 34% 76.35 0.0
02 11:35 W 22 16.09 Fair CLR 12.5 -2.6 35% 76.38 0.0
02 11:15 W 22 G 31 16.09 Fair CLR 12.6 -2.1 36% 76.38 0.0
02 10:55 W 20 G 31 16.09 Fair CLR 12.1 -2.7 36% 76.38 0.0
02 10:35 W 20 G 33 16.09 Fair CLR 12.1 -2.9 35% 76.4 0.0
02 10:15 W 13 16.09 Fair CLR 11.6 -2 39% 76.4 0.0
02 09:55 W 20 16.09 Fair CLR 10.8 -1.5 43% 76.4 0.0
02 09:35 W 19 16.09 Fair CLR 10.3 -1.7 43% 76.43 0.0
02 09:15 W 20 16.09 Fair CLR 10 -2 43% 8 76.43 0.0
02 08:55 W 15 16.09 Fair CLR 9 -1.6 48% 7 76.43 0.0
02 08:35 W 19 16.09 Fair CLR 8.4 -1.6 50% 6 76.43 0.0
02 08:15 W 19 14.48 Fair CLR 7.4 -1.5 54% 5 76.43 0.0
02 07:55 W 15 14.48 Fair CLR 5.9 -1.5 59% 3 76.43 0.0
02 07:35 W 15 14.48 Fair CLR 4.6 -1.6 64% 2 76.43 0.0
02 07:15 W 11 14.48 Fair CLR 2.9 -2 71% 0 76.43 0.0
02 06:55 W 13 16.09 Fair CLR 1.1 -3.1 2.5 -0.5 74% -2 76.4 0.0
02 06:35 W 13 14.48 Fair CLR 0.4 -3.7 74% -3 76.4 0.0
02 06:15 W 11 14.48 Fair CLR -0.1 -3.8 76% -3 76.4 0.0
02 05:55 W 13 14.48 Fair CLR -0.2 -4 76% -4 76.4 0.0
02 05:35 W 13 16.09 Fair CLR 0 -4 75% -4 76.4 0.0
02 05:15 W 15 16.09 Fair CLR 0.1 -3.8 75% -4 76.4 0.0
02 04:55 W 11 16.09 Fair CLR 0.1 -4 74% -3 76.4 0.0
02 04:35 W 11 16.09 Fair CLR -0.1 -3.9 76% -3 76.4 0.0
02 04:15 W 13 16.09 Fair CLR 0.4 -3.8 74% -3 76.4 0.0
02 03:55 W 13 16.09 Fair CLR 0.7 -3.9 72% -3 76.4 0.0
02 03:35 W 11 16.09 Fair CLR 0.6 -4.1 71% -2 76.4 0.0
02 03:15 W 11 16.09 Fair CLR 0.9 -3.9 71% -2 76.4 0.0
02 02:55 W 11 16.09 Fair CLR 0.7 -4 71% -2 76.4 0.0
02 02:35 W 11 16.09 Fair CLR 0.8 -4.1 70% -2 76.4 0.0
02 02:15 W 11 16.09 Fair CLR 1.4 -4.2 67% -2 76.4 0.0
02 01:55 W 11 16.09 Fair CLR 1.6 -4.1 66% -1 76.43 0.0
02 01:35 W 11 16.09 Fair CLR 1.1 -4 69% -2 76.43 0.0
02 01:15 W 9 16.09 Fair CLR 0.9 -3.4 73% -2 76.43 0.0
02 00:55 W 11 16.09 Fair CLR 2.2 -3.5 9.9 1.2 66% -1 76.43 0.0
02 00:35 W 9 16.09 Fair CLR 1.4 -3.5 70% -1 76.43 0.0
02 00:15 W 7 16.09 Fair CLR 1.7 -4 66% -0 76.43 0.0
01 23:55 W 9 16.09 Fair CLR 2.5 -3.2 66% 0 76.4 0.0
01 23:35 W 9 16.09 Fair CLR 2.8 -3.2 65% 1 76.4 0.0
01 23:15 W 11 16.09 Fair CLR 3.1 -3 65% 0 76.4 0.0
01 22:55 W 7 14.48 Fair CLR 3.3 -2.7 65% 2 76.4 0.0
01 22:35 W 7 16.09 Fair CLR 3.8 -3.7 58% 2 76.43 0.0
01 22:15 Calm 14.48 Fair CLR 4.7 -4.2 53% 76.43 0.0
01 21:55 Calm 16.09 Fair CLR 6.5 -5.5 42% 76.4 0.0
01 21:35 Calm 16.09 Partly Cloudy SCT080 7.2 -6.1 39% 76.4 0.0
01 21:15 Calm 16.09 Overcast OVC080 7.3 -5.7 39% 76.4 0.0
01 20:55 Calm 16.09 Overcast OVC080 7 -5.1 42% 76.38 0.0
01 20:35 N 7 14.48 Overcast OVC080 7 -5.1 42% 6 76.38 0.0
01 20:15 NE 7 14.48 Overcast OVC075 8.2 -5.8 37% 7 76.38 0.0
01 19:55 N 13 12.87 Partly Cloudy SCT075 8.5 -5.7 36% 7 76.35 0.0
01 19:35 N 13 12.87 A Few Clouds FEW075 8.4 -5.9 36% 7 76.35 0.0
01 19:15 N 19 14.48 Mostly Cloudy BKN075 9 -5.7 35% 7 76.33 0.0
01 18:55 NE 20 16.09 Mostly Cloudy BKN075 10.1 -6.3 11 8.8 31% 76.33 0.0
01 18:35 N 13 14.48 Partly Cloudy SCT075 9.6 -6 33% 8 76.33 0.0
01 18:15 N 19 14.48 Mostly Cloudy BKN075 9.8 -5.8 33% 8 76.33 0.0
01 17:55 NW 17 14.48 Fair CLR 10.4 -5.9 32% 76.33 0.0
01 17:35 N 15 16.09 Fair CLR 9.7 -6.1 33% 8 76.33 0.0
01 17:15 N 20 16.09 Fair CLR 10.3 -5.8 32% 76.33 0.0
01 16:55 N 20 16.09 A Few Clouds FEW070 10.1 -6.1 32% 76.3 0.0
01 16:35 N 19 16.09 Mostly Cloudy BKN070 10.3 -5.2 33% 76.3 0.0
01 16:15 NE 22 G 33 14.48 Mostly Cloudy BKN070 10.8 -5.3 32% 76.3 0.0
01 15:55 N 19 16.09 Partly Cloudy SCT070 10.4 -5.2 33% 76.33 0.0
01 15:35 N 17 16.09 Mostly Cloudy BKN070 10.9 -4.6 34% 76.33 0.0
01 15:15 N 19 16.09 A Few Clouds FEW070 10.3 -4.9 34% 76.33 0.0
01 14:55 N 22 16.09 Mostly Cloudy BKN070 10.5 -4.5 35% 76.33 0.0
01 14:35 N 19 16.09 Mostly Cloudy BKN065 10.5 -3.8 37% 76.33 0.0
01 14:15 N 15 G 35 16.09 Mostly Cloudy BKN065 10 -4.7 35% 8 76.33 0.0
01 13:55 N 22 G 33 16.09 Partly Cloudy SCT065 9.4 -4.8 37% 7 76.33 0.0
01 13:35 N 13 G 33 16.09 A Few Clouds FEW060 9.4 -4.3 38% 8 76.33 0.0
01 13:15 NW 20 G 30 16.09 Mostly Cloudy BKN060 9.7 -3.4 40% 7 76.33 0.0
01 12:55 N 20 G 30 16.09 Mostly Cloudy BKN060 9.2 -3.5 9.2 2.4 41% 7 76.35 0.0
01 12:35 N 30 G 35 16.09 Overcast OVC060 8.7 -4.2 40% 5 76.35 0.0
01 12:15 N 15 G 28 16.09 Mostly Cloudy BKN060 9 -3.5 42% 7 76.35 0.0
01 11:55 NE 22 G 31 16.09 Fair CLR 8.3 -4.2 41% 5 76.33 0.0
01 11:35 N 15 16.09 Fair CLR 8.4 -3.5 43% 6 76.35 0.0
01 11:15 N 20 G 30 16.09 Fair CLR 8.7 -3.4 43% 6 76.35 0.0
01 10:55 NE 19 16.09 Fair CLR 7.7 -4.7 41% 5 76.35 0.0
01 10:35 N 19 16.09 A Few Clouds FEW070 7.7 -4.3 43% 5 76.35 0.0
01 10:15 NE 20 16.09 Partly Cloudy SCT070 6.8 -5.3 42% 4 76.33 0.0
01 09:55 NE 20 16.09 Fair CLR 6.9 -4.8 43% 4 76.33 0.0
01 09:35 NE 20 16.09 Fair CLR 6.6 -3.9 47% 3 76.33 0.0
01 09:15 NE 20 16.09 Fair CLR 6.1 -4.1 48% 3 76.33 0.0
01 08:55 NE 19 16.09 Fair CLR 5.9 -3.1 53% 3 76.33 0.0
01 08:35 E 19 16.09 Fair CLR 5.7 -3.3 53% 2 76.3 0.0
01 08:15 E 20 14.48 A Few Clouds FEW055 5 -2.8 57% 1 76.3 0.0
01 07:55 NE 17 16.09 Mostly Cloudy BKN055 4.1 -1.4 68% 1 76.3 0.0
01 07:35 NE 19 16.09 Mostly Cloudy SCT055 BKN075 3.5 -1 73% -0 76.3 0.0
01 07:15 NE 13 14.48 Mostly Cloudy SCT055 BKN075 2.9 -0.1 81% -0 76.28 0.0
01 06:55 NE 13 12.87 A Few Clouds FEW060 2 0.6 5.3 1.3 91% -1 76.25 0.0
01 06:35 NE 15 11.27 Fair CLR 2.2 1.2 93% -1 76.23 0.0
01 06:15 NW 11 12.87 Partly Cloudy SCT055 2.2 1.6 96% -1 76.23 0.0
01 05:55 NW 7 14.48 Mostly Cloudy BKN050 2.5 1.4 93% 1 76.2 0.0
01 05:35 W 7 16.09 Partly Cloudy SCT060 1.3 0.8 97% -1 76.2 0.0
01 05:15 NW 7 16.09 Mostly Cloudy BKN060 BKN090 3.6 2.1 90% 2 76.2 0.0
01 04:55 NW 9 16.09 Overcast FEW050 OVC090 4.1 2.2 88% 2 76.2 0.0
01 04:35 NW 9 16.09 Overcast FEW050 OVC090 4.4 2.3 86% 2 76.2 0.0
01 04:15 W 11 16.09 Overcast OVC085 4.8 2.3 84% 3 76.2 0.0
01 03:55 W 9 16.09 Overcast OVC085 4.9 2 82% 3 76.2 0.0
01 03:35 W 11 16.09 Overcast FEW075 OVC090 5 2 81% 3 76.2 0.0
01 03:15 W 11 16.09 Overcast SCT049 OVC090 5.3 1.9 79% 3 76.2 0.0
01 02:55 NW 11 16.09 Overcast FEW050 SCT080 OVC095 5.1 1.6 78% 3 76.2 0.0
01 02:35 NW 9 16.09 Overcast FEW050 SCT080 OVC100 5.1 1.5 78% 3 76.2 0.0
01 02:15 NW 7 16.09 Overcast OVC095 4.9 1.1 77% 3 76.2 0.0
01 01:55 Calm 16.09 Overcast OVC085 4.4 1.1 79% 76.2 0.0
01 01:35 Calm 16.09 Overcast OVC080 4.4 -0.3 72% 76.2 0.0
01 01:15 Calm 16.09 Overcast FEW060 OVC080 4.3 -0.4 72% 76.23 0.0
01 00:55 S 6 16.09 Overcast OVC060 4.1 0.1 8.8 2.8 75% 76.2 0.0
01 00:35 Calm 16.09 Overcast OVC060 4.3 -0.1 73% 76.2 0.0
01 00:15 Calm 16.09 Overcast OVC060 4.4 -1 68% 76.2 0.0
30 23:55 W 9 16.09 Overcast SCT060 BKN080 OVC120 4.2 -0.6 71% 2 76.2 0.0
30 23:35 W 6 16.09 Overcast FEW055 OVC080 4.3 -0.9 69% 76.2 0.0
30 23:15 Calm 16.09 Overcast FEW060 OVC080 4.5 -2.6 60% 76.2 0.0
30 22:55 Calm 16.09 Mostly Cloudy SCT065 BKN075 BKN120 4.5 -3.8 55% 76.23 0.0
30 22:35 Calm 14.48 Partly Cloudy FEW075 SCT120 3.2 -3.2 63% 76.23 0.0
30 22:15 W 6 16.09 A Few Clouds FEW100 5.1 -3.1 56% 76.23 0.0
30 21:55 Calm 16.09 Overcast OVC100 4.7 -2.5 60% 76.23 0.0
30 21:35 NW 6 16.09 Mostly Cloudy BKN100 6 -3.7 50% 76.2 0.0
30 21:15 N 7 16.09 Mostly Cloudy BKN110 5.6 -3.5 52% 4 76.2 0.0
30 20:55 N 7 16.09 Partly Cloudy SCT080 SCT120 5.9 -3.8 50% 5 76.2 0.0
30 20:35 N 9 14.48 Partly Cloudy SCT075 6.1 -3.4 51% 4 76.2 0.0
30 20:15 N 15 14.48 Overcast OVC070 7.6 -3.9 44% 5 76.17 0.0
30 19:55 N 15 12.87 Mostly Cloudy BKN070 8 -4.3 42% 6 76.17 0.0
30 19:35 N 17 14.48 Overcast OVC070 8.2 -4.3 41% 6 76.17 0.0
30 19:15 N 19 16.09 Overcast OVC070 8.8 -4.2 40% 6 76.17 0.0
30 18:55 N 19 G 33 16.09 Overcast OVC065 9 -3.9 9.8 7.9 40% 7 76.15 0.0
30 18:35 NW 26 16.09 Mostly Cloudy BKN065 9 -4.3 39% 6 76.15 0.0
30 18:15 N 24 16.09 Mostly Cloudy BKN060 8.8 -4.3 40% 6 76.15 0.0
30 17:55 NW 22 16.09 Partly Cloudy SCT060 8.9 -3.8 41% 6 76.15 0.0
30 17:35 N 26 G 33 16.09 Partly Cloudy SCT060 8.5 -4 41% 5 76.15 0.0
30 17:15 N 19 G 31 16.09 Mostly Cloudy BKN060 8.8 -3.3 43% 6 76.15 0.0
30 16:55 NW 22 16.09 Mostly Cloudy BKN060 9.7 -2.7 42% 7 76.17 0.0
30 16:35 NW 28 16.09 Partly Cloudy SCT060 9.7 -2.6 42% 7 76.17 0.0
30 16:15 N 20 G 35 16.09 Mostly Cloudy BKN060 8.8 -3.1 43% 6 76.17 0.0
30 15:55 N 22 G 33 16.09 Mostly Cloudy BKN055 8.3 -3.5 44% 5 76.2 0.0
30 15:35 N 26 G 35 16.09 Mostly Cloudy BKN055 8.6 -3.4 43% 5 76.2 0.0
30 15:15 N 19 G 31 16.09 Overcast BKN050 OVC065 8.5 -2.6 46% 6 76.2 0.0
30 14:55 NW 17 16.09 Mostly Cloudy BKN050 BKN060 8.9 -2 47% 7 76.2 0.0
30 14:35 NW 22 G 33 16.09 Overcast BKN049 OVC060 8.8 -2 47% 6 76.2 0.0
30 14:15 N 17 G 33 16.09 Mostly Cloudy BKN049 9 -1.9 47% 7 76.2 0.0
30 13:55 NW 24 16.09 Mostly Cloudy BKN047 8.7 -1.7 48% 6 76.23 0.0
30 13:35 N 28 16.09 Mostly Cloudy BKN047 8.9 -1.5 48% 6 76.23 0.0
30 13:15 NW 17 16.09 Mostly Cloudy BKN046 8.6 -1.7 49% 6 76.23 0.0
30 12:55 NW 17 G 30 16.09 Partly Cloudy SCT045 7.9 -2.1 8.9 3.1 50% 5 76.25 0.0
30 12:35 NW 19 G 30 16.09 Partly Cloudy SCT044 8.6 -1.3 50% 6 76.25 0.0
30 12:15 NW 13 16.09 Partly Cloudy SCT041 8.4 -1.1 52% 7 76.28 0.0
30 11:55 NW 15 16.09 Mostly Cloudy BKN039 7.8 -1.6 52% 6 76.28 0.0
30 11:35 N 17 G 30 16.09 Mostly Cloudy BKN039 6.5 -1.8 56% 4 76.28 0.0
30 11:15 NW 22 16.09 Mostly Cloudy BKN040 8.1 -0.6 55% 5 76.28 0.0
30 10:55 N 17 16.09 A Few Clouds FEW039 6.7 -1.7 55% 4 76.28 0.0
30 10:35 NW 20 16.09 A Few Clouds FEW038 7.3 -1.3 55% 4 76.28 0.0
30 10:15 N 22 16.09 Fair CLR 7.2 -1 56% 4 76.28 0.0
30 09:55 N 22 16.09 Fair CLR 6.6 -1.9 55% 3 76.28 0.0
30 09:35 N 20 16.09 Fair CLR 6.3 -1.5 58% 3 76.28 0.0
30 09:15 N 20 16.09 Partly Cloudy SCT110 5.8 -1.3 61% 2 76.28 0.0
30 08:55 N 20 16.09 Mostly Cloudy BKN110 5.2 -1.2 64% 2 76.28 0.0
30 08:35 N 19 16.09 Mostly Cloudy BKN110 5.1 -0.7 66% 2 76.28 0.0
30 08:15 N 19 16.09 Partly Cloudy FEW070 SCT120 4.3 -0.7 70% 1 76.25 0.0
30 07:55 N 20 16.09 Mostly Cloudy BKN075 3.6 -1 72% -0 76.25 0.0
30 07:35 N 20 14.48 Mostly Cloudy BKN075 BKN120 3.4 -0.9 74% -1 76.25 0.0
30 07:15 NW 22 14.48 Overcast BKN070 BKN080 OVC120 3.2 -0.9 75% -1 76.25 0.0
30 06:55 NW 20 14.48 Overcast OVC070 3.6 -0.7 6.5 3.6 74% -0 76.23 0.0
30 06:35 NW 17 16.09 Overcast OVC065 4 -0.1 75% 1 76.23 0.0
30 06:15 NW 17 14.48 Overcast FEW046 OVC060 4.4 0.1 74% 1 76.2 0.0
30 05:55 NW 17 16.09 Overcast OVC055 4.8 0 71% 2 76.23 0.0
30 05:35 NW 13 16.09 Overcast OVC050 5 -0.3 69% 2 76.23 0.0
30 05:15 NW 13 16.09 Overcast OVC055 5.3 -0.4 67% 3 76.23 0.0
30 04:55 NW 13 16.09 Overcast OVC055 5.6 -0.4 66% 3 76.23 0.0
30 04:35 NW 17 16.09 Overcast OVC055 5.7 -0.6 64% 3 76.25 0.0
30 04:15 NW 13 16.09 Overcast FEW041 BKN060 BKN080 OVC095 5.7 -0.6 64% 3 76.23 0.0
30 03:55 NW 13 16.09 Overcast FEW033 OVC060 6 -0.6 63% 4 76.25 0.0
30 03:35 W 15 16.09 Overcast FEW031 SCT045 OVC065 6.2 -0.7 62% 4 76.25 0.0
30 03:15 NW 13 16.09 Light Rain FEW034 OVC070 5.9 -0.1 66% 3 76.23 0.0
30 02:55 W 13 16.09 Overcast BKN075 OVC095 5.5 0.3 70% 3 76.25 0.0
30 02:35 NW 11 16.09 Overcast SCT080 OVC095 5.4 -0.3 67% 3 76.25 0.0
30 02:15 NW 11 16.09 Overcast OVC100 5.3 -0.1 68% 3 76.25 0.0
30 01:55 NW 13 16.09 A Few Clouds FEW100 4.7 -0.5 69% 2 76.25 0.0
30 01:35 NW 11 16.09 Fair CLR 4.6 -0.9 68% 2 76.25 0.0
30 01:15 W 9 16.09 Fair CLR 5 -0.8 66% 3 76.25 0.0
30 00:55 W 9 16.09 Mostly Cloudy FEW055 SCT070 BKN095 4.9 0.1 9.5 2.8 71% 3 76.25 0.0
30 00:35 W 9 16.09 Partly Cloudy FEW075 SCT095 4.1 -0.1 74% 2 76.28 0.0
30 00:15 W 9 16.09 Fair CLR 3.6 -0.1 77% 1 76.25 0.0
29 23:55 W 7 16.09 Fair CLR 3.2 -0.5 77% 2 76.25 0.0
29 23:35 NW 6 16.09 Fair CLR 5.3 -0.2 68% 76.25 0.0
29 23:15 W 7 16.09 A Few Clouds FEW085 4.2 0.2 75% 3 76.25 0.0
29 22:55 W 7 16.09 A Few Clouds FEW085 3.5 -0.1 78% 2 76.28 0.0
29 22:35 NW 6 16.09 Fair CLR 4.7 -0.2 71% 76.25 0.0
29 22:15 W 7 16.09 Fair CLR 4.5 0.3 74% 3 76.25 0.0
29 21:55 W 6 16.09 Fair CLR 6.3 -0.4 63% 76.25 0.0
29 21:35 W 7 16.09 Fair CLR 6.8 -0.5 60% 6 76.25 0.0
29 21:15 NW 7 16.09 Fair CLR 7.7 -0.7 56% 7 76.25 0.0
29 20:55 NW 7 16.09 A Few Clouds FEW075 7.8 -0.6 56% 7 76.23 0.0
29 20:35 W 6 14.48 A Few Clouds FEW075 8.6 -0.6 53% 76.23 0.0
29 20:15 W 6 14.48 A Few Clouds FEW090 8.6 -0.6 53% 76.2 0.0
29 19:55 W 9 12.87 Partly Cloudy SCT090 8.7 -0.1 54% 7 76.2 0.0
29 19:35 NW 11 12.87 Mostly Cloudy BKN090 9 0.1 54% 8 76.2 0.0
29 19:15 NW 9 12.87 Mostly Cloudy BKN095 9.5 0.7 55% 8 76.2 0.0
29 18:55 NW 13 14.48 Overcast SCT070 OVC090 9.7 -0.3 12.1 9.5 50% 8 76.23 0.0
29 18:35 NW 11 14.48 Overcast BKN070 BKN080 OVC100 9.7 -0.3 50% 8 76.23 0.0
29 18:15 NW 17 14.48 Overcast BKN080 OVC095 9.5 -0.3 51% 7 76.23 0.0
29 17:55 NW 20 G 33 12.87 Overcast FEW049 SCT060 BKN075 OVC095 10 -1 47% 8 76.25 0.0
29 17:35 W 20 16.09 Overcast SCT075 OVC090 10.8 -1.4 43% 76.25 0.0
29 17:15 NW 22 16.09 Overcast SCT065 BKN080 OVC100 10.5 -1.8 43% 76.25 0.0
29 16:55 NW 19 16.09 Overcast SCT065 OVC095 10.7 -2.5 40% 76.23 0.0
29 16:35 NW 26 16.09 Overcast BKN065 OVC100 10.9 -2.4 40% 76.23 0.0
29 16:15 NW 22 G 37 16.09 Overcast BKN065 BKN080 OVC100 11.6 -2.1 39% 76.25 0.0
29 15:55 NW 20 G 30 14.48 Overcast OVC065 10.6 -2.3 41% 76.28 0.0
Date Time (cdt) Wind (kph) Vis. (km) Weather Sky Cond. Air Dwpt Max. Min. Relative Humidity Wind Chill (°C) Heat Index (°C) altimeter (cm) sea level (mb) 1 hr 3 hr 6 hr
6 hour
Temperature (ºC) Pressure Precipitation (cm)